Time;durP1;ratioP1;P1;durP2;ratioP2;P2;SDS_P1;SDS_P2;PMS_P1;PMS_P2;Temp;Humidity;BMP_temperature;BMP_pressure;BME280_temperature;BME280_humidity;BME280_pressure;Samples;Min_cycle;Max_cycle;Signal;HPM_P1;HPM_P2
2023/02/03 00:00:51;;;;;;;32.47;12.23;;;3.40;99.90;;;;;;5027572;28;20544;-72
2023/02/03 00:03:16;;;;;;;27.10;11.23;;;3.50;99.90;;;;;;5028004;28;20279;-74
2023/02/03 00:05:42;;;;;;;23.57;10.67;;;3.50;99.90;;;;;;5027221;28;20545;-74
2023/02/03 00:08:08;;;;;;;29.63;11.52;;;3.50;99.90;;;;;;5027227;28;20026;-74
2023/02/03 00:10:36;;;;;;;28.65;11.30;;;3.50;99.90;;;;;;5027138;28;20037;-72
2023/02/03 00:13:02;;;;;;;35.85;12.05;;;3.50;99.90;;;;;;5029646;28;20061;-75
2023/02/03 00:15:27;;;;;;;30.83;12.03;;;3.50;99.90;;;;;;5031661;28;20076;-73
2023/02/03 00:17:53;;;;;;;40.20;14.43;;;3.50;99.90;;;;;;5031513;28;20108;-73
2023/02/03 00:20:18;;;;;;;28.43;12.43;;;3.50;99.90;;;;;;5031005;28;20033;-72
2023/02/03 00:22:44;;;;;;;39.83;14.13;;;3.60;99.90;;;;;;5030790;28;20099;-73
2023/02/03 00:25:10;;;;;;;34.17;11.93;;;3.70;99.90;;;;;;5030972;28;20100;-71
2023/02/03 00:27:35;;;;;;;27.97;12.97;;;3.70;99.90;;;;;;5029722;28;20424;-71
2023/02/03 00:30:01;;;;;;;28.40;11.23;;;3.70;99.90;;;;;;5031056;28;20026;-72
2023/02/03 00:32:26;;;;;;;28.40;10.70;;;3.80;99.90;;;;;;5031096;28;20026;-71
2023/02/03 00:34:52;;;;;;;33.93;12.67;;;3.80;99.90;;;;;;5031135;28;20601;-72
2023/02/03 00:37:17;;;;;;;23.87;9.53;;;3.80;99.90;;;;;;5030963;28;20048;-74
2023/02/03 00:39:43;;;;;;;23.37;11.33;;;3.80;99.90;;;;;;5030448;28;20033;-75
2023/02/03 00:42:09;;;;;;;33.57;11.83;;;3.90;99.90;;;;;;5029987;28;20087;-74
2023/02/03 00:44:34;;;;;;;29.47;10.80;;;3.90;99.90;;;;;;5030478;28;20504;-74
2023/02/03 00:47:00;;;;;;;29.97;11.97;;;3.90;99.90;;;;;;5031208;28;20025;-75
2023/02/03 00:49:26;;;;;;;25.90;10.53;;;3.90;99.90;;;;;;5030341;28;20063;-73
2023/02/03 00:51:52;;;;;;;30.52;11.63;;;3.90;99.90;;;;;;5030633;28;20061;-75
2023/02/03 00:54:17;;;;;;;31.95;10.98;;;3.90;99.90;;;;;;5012571;28;20076;-74
2023/02/03 00:56:43;;;;;;;27.73;9.73;;;3.90;99.90;;;;;;5030438;28;20025;-75
2023/02/03 00:59:09;;;;;;;30.13;11.60;;;3.90;99.90;;;;;;5029067;28;20055;-75
2023/02/03 01:01:35;;;;;;;27.33;11.27;;;3.90;99.90;;;;;;5023846;28;20125;-72
2023/02/03 01:04:01;;;;;;;25.90;11.05;;;3.90;99.90;;;;;;5030391;28;20036;-73
2023/02/03 01:06:27;;;;;;;38.28;11.88;;;3.90;99.90;;;;;;5012492;28;20088;-74
2023/02/03 01:08:53;;;;;;;28.25;11.18;;;3.90;99.90;;;;;;5030152;28;20441;-74
2023/02/03 01:11:25;;;;;;;35.30;11.60;;;3.90;99.90;;;;;;5030091;28;20029;-73
2023/02/03 01:13:53;;;;;;;27.85;10.80;;;3.90;99.90;;;;;;5030173;28;20037;-75
2023/02/03 01:16:20;;;;;;;34.03;11.68;;;3.90;99.90;;;;;;5029839;28;20128;-74
2023/02/03 01:18:46;;;;;;;30.45;11.90;;;4.00;99.90;;;;;;5030187;28;20112;-74
2023/02/03 01:21:15;;;;;;;29.10;11.65;;;4.00;99.90;;;;;;5030106;28;20043;-74
2023/02/03 01:23:41;;;;;;;31.83;11.02;;;4.10;99.90;;;;;;5030010;28;20036;-75
2023/02/03 01:26:10;;;;;;;35.88;11.40;;;4.10;99.90;;;;;;5030338;28;20128;-74
2023/02/03 01:28:36;;;;;;;22.75;10.95;;;4.00;99.90;;;;;;5012499;28;20133;-75
2023/02/03 01:31:11;;;;;;;23.95;12.30;;;4.00;99.90;;;;;;5030307;28;20029;-75
2023/02/03 01:33:39;;;;;;;25.60;11.20;;;4.00;99.90;;;;;;5030059;28;20043;-74
2023/02/03 01:36:08;;;;;;;27.90;12.27;;;4.00;99.90;;;;;;5029728;28;20389;-75
2023/02/03 01:38:34;;;;;;;24.42;12.05;;;4.00;99.90;;;;;;5029885;28;20091;-75
2023/02/03 01:41:00;;;;;;;28.98;11.98;;;4.00;99.90;;;;;;5030419;28;20034;-71
2023/02/03 01:43:37;;;;;;;39.22;13.10;;;3.90;99.90;;;;;;5030189;28;20390;-73
2023/02/03 01:46:15;;;;;;;35.58;11.60;;;3.90;99.90;;;;;;5029925;28;20022;-73
2023/02/03 01:48:41;;;;;;;27.02;11.35;;;3.90;99.90;;;;;;5029686;28;20029;-73
2023/02/03 01:51:06;;;;;;;31.67;12.37;;;3.80;99.90;;;;;;5029649;28;20100;-71
2023/02/03 01:53:33;;;;;;;29.83;13.00;;;3.80;99.90;;;;;;5011971;28;20045;-73
2023/02/03 01:56:00;;;;;;;;;;;3.80;99.90;;;;;;5029795;28;20497;-72
2023/02/03 01:58:31;;;;;;;29.83;12.20;;;3.80;99.90;;;;;;5029441;28;20003;-73
2023/02/03 02:00:57;;;;;;;39.75;12.05;;;3.80;99.90;;;;;;5029117;28;20040;-75
2023/02/03 02:03:30;;;;;;;28.13;13.25;;;3.70;99.90;;;;;;5028869;28;20029;-75
2023/02/03 02:06:08;;;;;;;30.85;11.43;;;3.60;99.90;;;;;;5028945;28;20032;-73
2023/02/03 02:08:35;;;;;;;28.58;11.88;;;3.60;99.90;;;;;;5029531;28;20025;-73
2023/02/03 02:11:01;;;;;;;29.02;11.82;;;3.60;99.90;;;;;;5029284;28;20816;-74
2023/02/03 02:13:34;;;;;;;29.90;11.95;;;3.50;99.90;;;;;;5011149;28;20128;-74
2023/02/03 02:16:23;;;;;;;25.08;11.43;;;3.50;99.90;;;;;;5029112;28;20095;-75
2023/02/03 02:19:42;;;;;;;29.20;12.75;;;3.50;99.90;;;;;;5028983;28;20040;-74
2023/02/03 02:22:17;;;;;;;;;;;3.60;99.90;;;;;;5029316;28;20035;-73
2023/02/03 02:25:03;;;;;;;29.42;11.52;;;3.60;99.90;;;;;;5028626;28;19917;-74
2023/02/03 02:27:54;;;;;;;32.35;11.52;;;3.60;99.90;;;;;;5028812;28;20029;-72
2023/02/03 02:30:31;;;;;;;29.13;11.07;;;3.60;99.90;;;;;;5010760;28;20068;-75
2023/02/03 02:33:15;;;;;;;32.92;14.20;;;3.60;99.90;;;;;;5028186;28;20025;-72
2023/02/03 02:36:08;;;;;;;38.53;14.45;;;3.70;99.90;;;;;;5027535;28;20027;-72
2023/02/03 02:38:46;;;;;;;33.42;13.13;;;3.60;99.90;;;;;;5028915;28;20029;-72
2023/02/03 02:41:36;;;;;;;34.13;13.20;;;3.50;99.90;;;;;;5028090;28;20076;-72
2023/02/03 02:44:15;;;;;;;34.15;13.88;;;3.60;99.90;;;;;;5028833;28;20045;-72
2023/02/03 02:46:52;;;;;;;31.75;12.25;;;3.70;99.90;;;;;;5028229;28;20064;-72
2023/02/03 02:49:29;;;;;;;36.42;13.27;;;3.60;99.90;;;;;;5010959;28;20033;-72
2023/02/03 02:51:58;;;;;;;34.97;12.25;;;3.70;99.90;;;;;;5028270;28;20036;-74
2023/02/03 02:54:26;;;;;;;35.65;12.00;;;3.70;99.90;;;;;;5028271;28;20033;-75
2023/02/03 02:56:55;;;;;;;32.85;12.48;;;3.90;99.90;;;;;;5024970;28;20235;-72
2023/02/03 02:59:20;;;;;;;30.13;11.93;;;3.90;99.90;;;;;;5028524;28;20509;-72
2023/02/03 03:01:46;;;;;;;24.40;11.07;;;3.90;99.90;;;;;;5028106;28;20021;-73
2023/02/03 03:04:14;;;;;;;31.93;12.53;;;3.90;99.90;;;;;;5028269;28;20041;-75
2023/02/03 03:06:52;;;;;;;24.83;9.90;;;3.90;99.90;;;;;;5027419;28;20053;-75
2023/02/03 03:09:24;;;;;;;25.40;11.48;;;4.00;99.90;;;;;;5027768;28;20022;-75
2023/02/03 03:11:55;;;;;;;28.42;12.13;;;3.90;99.90;;;;;;5028313;28;20490;-73
2023/02/03 03:14:25;;;;;;;28.75;11.90;;;4.00;99.90;;;;;;5028010;28;20485;-72
2023/02/03 03:16:58;;;;;;;44.15;14.07;;;4.00;99.90;;;;;;5028062;28;20772;-73
2023/02/03 03:19:28;;;;;;;33.45;11.55;;;3.90;99.90;;;;;;5027688;28;20072;-72
2023/02/03 03:22:00;;;;;;;25.02;11.07;;;3.90;99.90;;;;;;5027887;28;20113;-75
2023/02/03 03:24:40;;;;;;;30.70;11.77;;;3.90;99.90;;;;;;5027847;28;20517;-74
2023/02/03 03:27:22;;;;;;;31.05;11.93;;;3.80;99.90;;;;;;5027965;28;20453;-74
2023/02/03 03:29:58;;;;;;;34.05;11.68;;;3.80;99.90;;;;;;5027874;28;20113;-75
2023/02/03 03:32:24;;;;;;;29.50;11.32;;;3.70;99.90;;;;;;5027427;28;20129;-75
2023/02/03 03:34:51;;;;;;;23.45;10.77;;;3.70;99.90;;;;;;5027587;28;20029;-75
2023/02/03 03:37:37;;;;;;;31.10;10.15;;;3.60;99.90;;;;;;5027132;28;20041;-75
2023/02/03 03:40:14;;;;;;;29.45;11.35;;;3.60;99.90;;;;;;5026660;28;20069;-75
2023/02/03 03:42:45;;;;;;;23.83;11.60;;;3.60;99.90;;;;;;5027534;28;20151;-74
2023/02/03 03:45:31;;;;;;;33.80;12.02;;;3.70;99.90;;;;;;5027697;28;20025;-73
2023/02/03 03:47:56;;;;;;;29.85;11.15;;;3.70;99.90;;;;;;5027712;28;20037;-75
2023/02/03 03:50:29;;;;;;;29.43;10.57;;;3.70;99.90;;;;;;5027525;28;20104;-75
2023/02/03 03:52:59;;;;;;;27.88;10.38;;;3.70;99.90;;;;;;5027485;28;20412;-75
2023/02/03 03:55:29;;;;;;;26.40;10.80;;;3.70;99.90;;;;;;5027209;28;20021;-72
2023/02/03 03:58:12;;;;;;;42.13;11.93;;;3.70;99.90;;;;;;5027779;28;20030;-75
2023/02/03 04:00:40;;;;;;;26.08;11.43;;;3.80;99.90;;;;;;5027723;28;20021;-72
2023/02/03 04:03:13;;;;;;;21.70;10.23;;;3.80;99.90;;;;;;5027850;28;20107;-74
2023/02/03 04:05:40;;;;;;;31.38;10.98;;;3.70;99.90;;;;;;5027475;28;20036;-75
2023/02/03 04:08:05;;;;;;;30.00;10.50;;;3.70;99.90;;;;;;5026874;28;20041;-73
2023/02/03 04:10:37;;;;;;;22.43;9.00;;;3.70;99.90;;;;;;5026829;28;20034;-75
2023/02/03 04:13:03;;;;;;;27.52;10.73;;;3.60;99.90;;;;;;5026515;28;20288;-74
2023/02/03 04:15:29;;;;;;;24.38;10.43;;;3.60;99.90;;;;;;5009188;28;20630;-75
2023/02/03 04:17:56;;;;;;;18.52;9.27;;;3.50;99.90;;;;;;5027335;28;20382;-75
2023/02/03 04:20:22;;;;;;;26.92;10.10;;;3.40;99.90;;;;;;5009500;28;20152;-72
2023/02/03 04:22:48;;;;;;;20.42;8.73;;;3.40;99.90;;;;;;5027008;28;20029;-72
2023/02/03 04:25:14;;;;;;;31.00;11.07;;;3.40;99.90;;;;;;5027198;28;20497;-72
2023/02/03 04:27:39;;;;;;;23.47;9.57;;;3.20;99.90;;;;;;5027424;28;20268;-75
2023/02/03 04:30:06;;;;;;;38.07;12.03;;;3.20;99.90;;;;;;5026021;28;20061;-72
2023/02/03 04:32:31;;;;;;;;;;;3.10;99.90;;;;;;5027682;28;20040;-75
2023/02/03 04:34:57;;;;;;;30.67;9.68;;;3.10;99.90;;;;;;5027416;28;19978;-75
2023/02/03 04:37:25;;;;;;;24.02;10.40;;;3.00;99.90;;;;;;5027011;28;20078;-72
2023/02/03 04:39:52;;;;;;;29.13;8.88;;;2.90;99.90;;;;;;5009374;28;20382;-72
2023/02/03 04:42:17;;;;;;;30.52;11.23;;;2.90;99.90;;;;;;5027120;28;20037;-73
2023/02/03 04:44:43;;;;;;;26.58;10.73;;;2.80;99.90;;;;;;5027130;28;20039;-74
2023/02/03 04:47:09;;;;;;;29.43;9.77;;;2.70;99.90;;;;;;5027556;28;20034;-72
2023/02/03 04:49:34;;;;;;;29.77;9.80;;;2.80;99.90;;;;;;5027096;28;20791;-74
2023/02/03 04:52:00;;;;;;;23.80;8.70;;;2.80;99.90;;;;;;5026895;28;20026;-74
2023/02/03 04:54:25;;;;;;;23.33;9.63;;;2.70;99.90;;;;;;5025751;28;20041;-73
2023/02/03 04:56:51;;;;;;;24.13;9.87;;;2.60;99.90;;;;;;5024029;28;20041;-72
2023/02/03 04:59:16;;;;;;;27.63;9.87;;;2.60;99.90;;;;;;5029668;28;20037;-72
2023/02/03 05:01:42;;;;;;;30.07;9.67;;;2.50;99.90;;;;;;5012835;28;20036;-73
2023/02/03 05:04:08;;;;;;;27.70;10.60;;;2.40;99.90;;;;;;5030716;28;20311;-71
2023/02/03 05:06:34;;;;;;;26.88;9.95;;;2.30;99.90;;;;;;5030832;28;20025;-74
2023/02/03 05:08:59;;;;;;;23.20;9.73;;;2.30;99.90;;;;;;5029787;28;20041;-73
2023/02/03 05:11:25;;;;;;;25.33;10.17;;;2.20;99.90;;;;;;5030003;28;20032;-72
2023/02/03 05:13:52;;;;;;;24.08;10.35;;;2.20;99.90;;;;;;5030129;28;20080;-75
2023/02/03 05:16:17;;;;;;;;;;;2.10;99.90;;;;;;5030559;28;20047;-74
2023/02/03 05:18:43;;;;;;;23.83;10.10;;;2.20;99.90;;;;;;5029791;28;20007;-75
2023/02/03 05:21:09;;;;;;;35.67;12.23;;;2.10;99.90;;;;;;5030526;28;20042;-74
2023/02/03 05:23:34;;;;;;;33.97;11.73;;;2.10;99.90;;;;;;5030122;28;20029;-73
2023/02/03 05:26:00;;;;;;;28.97;12.00;;;2.10;99.90;;;;;;5030111;28;20037;-75
2023/02/03 05:28:25;;;;;;;28.40;12.87;;;2.10;99.90;;;;;;5029842;28;20268;-74
2023/02/03 05:30:51;;;;;;;31.50;11.47;;;2.10;99.90;;;;;;5028609;28;20068;-74
2023/02/03 05:33:17;;;;;;;31.10;11.47;;;2.00;99.90;;;;;;5029739;28;20041;-74
2023/02/03 05:35:42;;;;;;;34.72;11.05;;;2.00;99.90;;;;;;5029878;28;20110;-74
2023/02/03 05:38:08;;;;;;;28.10;10.85;;;1.90;99.90;;;;;;5029589;28;20035;-75
2023/02/03 05:43:18;;;;;;;28.70;10.52;;;1.80;99.90;;;;;;5029893;28;20051;-73
2023/02/03 05:45:44;;;;;;;28.90;10.35;;;1.70;99.90;;;;;;5029840;28;20026;-74
2023/02/03 05:48:10;;;;;;;32.50;11.90;;;1.70;99.90;;;;;;5028641;28;20060;-73
2023/02/03 05:50:36;;;;;;;33.22;11.75;;;1.70;99.90;;;;;;5027966;28;20029;-73
2023/02/03 05:53:04;;;;;;;38.38;12.15;;;1.70;99.90;;;;;;5029191;28;20405;-74
2023/02/03 05:55:30;;;;;;;34.65;12.98;;;1.60;99.90;;;;;;5029289;28;20440;-74
2023/02/03 05:57:57;;;;;;;26.67;11.10;;;1.60;99.90;;;;;;5029331;28;20029;-74
2023/02/03 06:00:23;;;;;;;26.05;11.85;;;1.60;99.90;;;;;;5029385;28;20033;-75
2023/02/03 06:03:01;;;;;;;25.80;11.75;;;1.50;99.90;;;;;;5029571;28;20501;-74
2023/02/03 06:05:27;;;;;;;31.63;12.95;;;1.40;99.90;;;;;;5029516;28;20040;-74
2023/02/03 06:07:53;;;;;;;30.20;11.82;;;1.40;99.90;;;;;;5029620;28;20030;-73
2023/02/03 06:10:19;;;;;;;37.17;11.95;;;1.40;99.90;;;;;;5028440;28;20033;-72
2023/02/03 06:12:45;;;;;;;30.63;12.02;;;1.40;99.90;;;;;;5029776;28;20049;-75
2023/02/03 06:15:11;;;;;;;27.83;11.27;;;1.40;99.90;;;;;;5029611;28;20044;-74
2023/02/03 06:17:36;;;;;;;30.10;11.23;;;1.40;99.90;;;;;;5029478;28;20397;-74
2023/02/03 06:20:07;;;;;;;31.53;11.43;;;1.40;99.90;;;;;;5029113;28;20460;-73
2023/02/03 06:22:33;;;;;;;29.08;11.80;;;1.30;99.90;;;;;;5029149;28;20283;-73
2023/02/03 06:24:58;;;;;;;26.63;11.63;;;1.30;99.90;;;;;;5029125;28;20025;-73
2023/02/03 06:27:24;;;;;;;48.27;16.23;;;1.30;99.90;;;;;;5028624;28;20060;-73
2023/02/03 06:29:50;;;;;;;27.13;11.52;;;1.30;99.90;;;;;;5028522;28;20275;-74
2023/02/03 06:32:15;;;;;;;39.58;14.57;;;1.40;99.90;;;;;;5028259;28;20704;-74
2023/02/03 06:34:41;;;;;;;30.80;12.17;;;1.40;99.90;;;;;;5029062;28;20034;-71
2023/02/03 06:37:07;;;;;;;33.07;11.50;;;1.40;99.90;;;;;;5028692;28;20260;-74
2023/02/03 06:39:32;;;;;;;28.80;12.67;;;1.30;99.90;;;;;;5028665;28;20444;-73
2023/02/03 06:41:58;;;;;;;35.70;12.37;;;1.30;99.90;;;;;;5028363;28;20068;-73
2023/02/03 06:44:24;;;;;;;32.50;12.25;;;1.20;99.90;;;;;;5028746;28;20026;-74
2023/02/03 06:46:50;;;;;;;35.63;14.70;;;1.10;99.90;;;;;;5028336;28;20033;-72
2023/02/03 06:49:16;;;;;;;37.73;14.27;;;1.00;99.90;;;;;;5028584;28;20499;-73
2023/02/03 06:51:42;;;;;;;;;;;1.00;99.90;;;;;;5028663;28;20657;-72
2023/02/03 06:54:10;;;;;;;29.48;13.15;;;0.90;99.90;;;;;;5011138;28;19972;-72
2023/02/03 06:56:35;;;;;;;34.97;12.27;;;0.90;99.90;;;;;;5008628;28;20026;-73
2023/02/03 06:59:01;;;;;;;37.22;13.40;;;0.90;99.90;;;;;;5016367;28;20043;-74
2023/02/03 07:01:28;;;;;;;30.57;14.93;;;0.90;99.90;;;;;;5026419;28;20030;-73
2023/02/03 07:03:56;;;;;;;31.40;12.15;;;1.00;99.90;;;;;;5027775;28;20025;-72
2023/02/03 07:06:27;;;;;;;33.78;12.18;;;1.00;99.90;;;;;;5028019;28;20057;-73
2023/02/03 07:08:56;;;;;;;22.02;10.55;;;1.00;99.90;;;;;;5027920;28;20495;-72
2023/02/03 07:11:23;;;;;;;28.55;11.90;;;1.00;99.90;;;;;;5027732;28;20408;-72
2023/02/03 07:13:48;;;;;;;30.38;11.70;;;1.00;99.90;;;;;;5010023;28;20544;-73
2023/02/03 07:16:14;;;;;;;36.03;14.68;;;1.00;99.90;;;;;;5027898;28;20060;-71
2023/02/03 07:18:40;;;;;;;31.45;11.75;;;1.10;99.90;;;;;;5028207;28;20053;-71
2023/02/03 07:21:06;;;;;;;28.45;12.15;;;1.10;99.90;;;;;;5027868;28;20037;-75
2023/02/03 07:23:32;;;;;;;39.05;13.30;;;1.10;99.90;;;;;;5028157;28;20706;-73
2023/02/03 07:25:59;;;;;;;30.30;11.65;;;1.10;99.90;;;;;;5027839;28;20022;-74
2023/02/03 07:28:25;;;;;;;27.67;12.35;;;1.20;99.90;;;;;;5028201;28;20497;-72
2023/02/03 07:30:51;;;;;;;28.63;12.70;;;1.20;99.90;;;;;;5009932;28;20037;-73
2023/02/03 07:33:16;;;;;;;32.70;13.30;;;1.20;99.90;;;;;;5028149;28;20034;-74
2023/02/03 07:35:42;;;;;;;48.37;13.63;;;1.20;99.90;;;;;;5027744;28;20348;-74
2023/02/03 07:38:08;;;;;;;36.17;13.00;;;1.20;99.90;;;;;;5027946;28;20645;-74
2023/02/03 07:40:33;;;;;;;33.30;13.10;;;1.20;99.90;;;;;;5013895;28;20044;-75
2023/02/03 07:42:59;;;;;;;41.65;12.10;;;1.20;99.90;;;;;;5027903;28;20409;-74
2023/02/03 07:45:24;;;;;;;29.83;12.97;;;1.30;99.90;;;;;;5026229;28;20065;-74
2023/02/03 07:47:50;;;;;;;33.50;14.97;;;1.20;99.90;;;;;;5027693;28;20017;-72
2023/02/03 07:50:17;;;;;;;37.10;14.67;;;1.30;99.90;;;;;;5027697;28;20307;-74
2023/02/03 07:52:42;;;;;;;37.45;13.43;;;1.30;99.90;;;;;;5027212;28;20331;-74
2023/02/03 07:55:08;;;;;;;35.58;12.32;;;1.40;99.90;;;;;;5027283;28;20079;-74
2023/02/03 07:57:34;;;;;;;38.55;14.68;;;1.40;99.90;;;;;;5025648;28;20095;-73
2023/02/03 08:00:00;;;;;;;37.10;14.70;;;1.40;99.90;;;;;;5027272;28;20033;-75
2023/02/03 08:02:25;;;;;;;37.97;12.67;;;1.50;99.90;;;;;;5026192;28;20120;-75
2023/02/03 08:04:51;;;;;;;28.30;13.23;;;1.50;99.90;;;;;;5027547;28;20296;-74
2023/02/03 08:07:16;;;;;;;64.73;13.40;;;1.70;99.90;;;;;;5027514;28;20030;-74
2023/02/03 08:09:42;;;;;;;47.05;12.98;;;2.00;99.90;;;;;;5027277;28;20029;-73
2023/02/03 08:12:08;;;;;;;37.03;12.17;;;2.80;99.90;;;;;;5027307;28;20105;-74
2023/02/03 08:14:33;;;;;;;31.83;11.30;;;4.20;99.90;;;;;;5027097;28;20033;-75
2023/02/03 08:16:59;;;;;;;24.13;10.13;;;4.60;99.90;;;;;;5026942;28;20034;-75
2023/02/03 08:19:24;;;;;;;26.93;11.80;;;3.90;99.90;;;;;;5027381;28;20044;-72
2023/02/03 08:21:50;;;;;;;24.57;10.57;;;3.40;99.90;;;;;;5026239;28;20397;-74
2023/02/03 08:24:16;;;;;;;43.23;11.73;;;3.30;99.90;;;;;;5026011;28;20041;-72
2023/02/03 08:26:41;;;;;;;27.63;11.63;;;3.20;99.90;;;;;;5027376;28;20462;-74
2023/02/03 08:29:07;;;;;;;27.77;11.17;;;3.10;99.90;;;;;;5025750;28;20128;-74
2023/02/03 08:31:32;;;;;;;27.37;14.57;;;3.20;99.90;;;;;;5027064;28;20033;-72
2023/02/03 08:33:58;;;;;;;34.88;16.17;;;3.20;99.90;;;;;;5029379;28;20037;-76
2023/02/03 08:36:24;;;;;;;32.37;13.97;;;3.40;99.90;;;;;;5030892;28;20030;-76
2023/02/03 08:38:49;;;;;;;37.20;14.32;;;4.20;99.90;;;;;;5030070;28;20107;-74
2023/02/03 08:41:17;;;;;;;29.40;13.50;;;6.20;99.90;;;;;;5030746;28;20029;-76
2023/02/03 08:43:43;;;;;;;35.63;15.05;;;7.60;98.40;;;;;;5028251;28;20033;-76
2023/02/03 08:46:09;;;;;;;;;;;8.40;95.70;;;;;;5027602;28;20033;-76
2023/02/03 08:48:35;;;;;;;34.05;14.13;;;8.80;94.30;;;;;;5029291;28;19931;-76
2023/02/03 08:51:01;;;;;;;40.17;15.98;;;9.30;92.90;;;;;;5012422;28;20490;-73
2023/02/03 08:53:27;;;;;;;29.95;14.45;;;10.70;91.20;;;;;;5030405;28;20725;-74
2023/02/03 08:55:53;;;;;;;36.45;13.93;;;12.10;86.30;;;;;;5030152;28;20029;-73
2023/02/03 08:58:19;;;;;;;35.40;13.13;;;12.70;81.00;;;;;;5031066;28;20115;-76
2023/02/03 09:00:47;;;;;;;34.40;13.47;;;14.00;76.70;;;;;;5030857;28;20057;-73
2023/02/03 09:03:13;;;;;;;37.33;15.90;;;14.70;72.70;;;;;;5030743;28;20048;-77
2023/02/03 09:05:38;;;;;;;49.83;14.20;;;15.10;71.50;;;;;;5030745;28;20021;-77
2023/02/03 09:08:04;;;;;;;30.23;13.97;;;16.00;67.10;;;;;;5030413;28;20041;-77
2023/02/03 09:10:30;;;;;;;31.67;12.55;;;16.40;64.00;;;;;;5030126;28;20037;-76
2023/02/03 09:12:55;;;;;;;31.40;12.60;;;16.80;63.50;;;;;;5030809;28;20587;-74
2023/02/03 09:15:21;;;;;;;25.93;12.53;;;17.20;60.90;;;;;;5030933;28;20075;-74
2023/02/03 09:17:47;;;;;;;34.20;11.03;;;16.00;60.90;;;;;;5030413;28;20116;-74
2023/02/03 09:20:13;;;;;;;25.27;12.80;;;16.40;62.30;;;;;;5030224;28;20030;-77
2023/02/03 09:22:39;;;;;;;30.95;11.48;;;17.10;58.90;;;;;;5030267;28;20026;-76
2023/02/03 09:25:06;;;;;;;23.87;11.00;;;17.90;56.80;;;;;;5030054;28;20057;-75
2023/02/03 09:27:31;;;;;;;23.52;11.18;;;18.50;54.90;;;;;;5029640;28;20493;-73
2023/02/03 09:29:57;;;;;;;21.23;10.47;;;18.30;53.70;;;;;;5030061;28;20033;-73
2023/02/03 09:32:23;;;;;;;27.57;10.80;;;19.40;53.10;;;;;;5029136;28;20091;-73
2023/02/03 09:34:48;;;;;;;46.30;11.23;;;19.50;51.30;;;;;;5020624;28;20057;-75
2023/02/03 09:37:14;;;;;;;24.83;10.63;;;18.50;51.80;;;;;;5029102;28;20451;-72
2023/02/03 09:39:40;;;;;;;22.57;10.47;;;17.00;56.10;;;;;;5026493;28;20064;-69
2023/02/03 09:42:27;;;;;;;35.23;9.93;;;16.70;56.10;;;;;;5026629;28;20655;-71
2023/02/03 09:45:10;;;;;;;26.00;10.23;;;17.30;57.50;;;;;;5024124;28;20402;-68
2023/02/03 09:47:39;;;;;;;25.45;10.50;;;17.40;56.10;;;;;;5010755;28;20042;-69
2023/02/03 09:50:19;;;;;;;20.95;11.48;;;17.00;54.80;;;;;;5018603;28;20049;-69
2023/02/03 09:52:46;;;;;;;24.38;10.77;;;15.20;58.30;;;;;;5019988;28;20196;-68
2023/02/03 09:55:30;;;;;;;24.10;10.32;;;14.20;65.20;;;;;;5022087;28;20040;-70
2023/02/03 09:58:07;;;;;;;26.80;9.38;;;13.40;69.20;;;;;;5002908;28;20517;-68
2023/02/03 10:00:55;;;;;;;19.98;9.15;;;13.90;67.70;;;;;;5019220;28;20021;-68
2023/02/03 10:03:37;;;;;;;30.20;9.35;;;15.30;64.20;;;;;;5015886;28;20032;-66
2023/02/03 10:06:02;;;;;;;26.48;9.38;;;15.90;61.20;;;;;;5004244;28;20044;-68
2023/02/03 10:08:59;;;;;;;30.23;9.47;;;16.20;59.90;;;;;;5018361;28;20033;-75
2023/02/03 10:11:38;;;;;;;21.27;8.75;;;16.00;57.50;;;;;;5019611;28;20022;-66
2023/02/03 10:14:06;;;;;;;22.55;8.95;;;13.90;63.60;;;;;;5028941;28;20056;-66
2023/02/03 10:16:42;;;;;;;25.30;9.20;;;12.30;71.20;;;;;;5026125;28;20105;-67
2023/02/03 10:19:15;;;;;;;23.67;10.38;;;11.70;77.90;;;;;;5021736;28;20069;-69
2023/02/03 10:21:50;;;;;;;20.75;9.43;;;11.30;81.40;;;;;;5003862;28;20021;-69
2023/02/03 10:24:33;;;;;;;21.63;8.85;;;12.70;77.50;;;;;;5021460;28;20026;-71
2023/02/03 10:26:59;;;;;;;22.65;8.23;;;14.50;69.90;;;;;;5021369;28;20022;-68
2023/02/03 10:29:37;;;;;;;26.13;9.57;;;15.70;62.50;;;;;;5022820;28;20083;-67
2023/02/03 10:32:08;;;;;;;22.13;7.63;;;15.10;62.80;;;;;;5021793;28;20038;-74
2023/02/03 10:34:35;;;;;;;22.52;8.85;;;13.40;67.80;;;;;;5020595;28;20044;-75
2023/02/03 10:37:16;;;;;;;36.80;9.27;;;12.50;73.70;;;;;;5023447;28;20026;-71
2023/02/03 10:39:44;;;;;;;16.52;7.75;;;11.60;77.70;;;;;;5010112;28;20795;-74
2023/02/03 10:42:11;;;;;;;17.63;8.18;;;11.20;81.50;;;;;;5017915;28;20091;-72
2023/02/03 10:44:47;;;;;;;19.55;8.32;;;10.40;83.60;;;;;;5017603;28;20032;-71
2023/02/03 10:47:22;;;;;;;20.38;8.77;;;10.20;88.90;;;;;;5011148;28;20026;-66
2023/02/03 10:49:50;;;;;;;21.40;7.88;;;10.10;89.50;;;;;;5018638;28;20433;-70
2023/02/03 10:52:34;;;;;;;18.83;9.30;;;9.90;90.00;;;;;;5016145;28;20025;-70
2023/02/03 10:55:28;;;;;;;19.95;8.38;;;9.80;90.10;;;;;;5022836;28;20033;-72
2023/02/03 10:57:55;;;;;;;13.00;5.25;;;9.70;90.60;;;;;;5018383;28;20540;-70
2023/02/03 11:00:29;;;;;;;14.10;6.90;;;9.60;90.60;;;;;;5014591;28;20122;-67
2023/02/03 11:03:09;;;;;;;15.77;6.43;;;9.60;91.50;;;;;;5016750;28;20065;-71
2023/02/03 11:05:35;;;;;;;17.17;5.65;;;9.70;91.70;;;;;;5017586;28;20057;-68
2023/02/03 11:08:01;;;;;;;18.60;8.57;;;9.60;90.40;;;;;;5017898;28;20069;-68
2023/02/03 11:10:36;;;;;;;13.05;5.32;;;9.50;91.50;;;;;;5018102;28;20033;-69
2023/02/03 11:13:18;;;;;;;11.75;3.80;;;9.50;91.70;;;;;;5018176;28;20556;-67
2023/02/03 11:16:04;;;;;;;8.82;3.58;;;9.40;91.90;;;;;;5018733;28;20088;-67
2023/02/03 11:18:48;;;;;;;7.55;3.10;;;9.50;91.50;;;;;;5019826;28;20098;-68
2023/02/03 11:21:21;;;;;;;6.53;3.55;;;9.60;92.10;;;;;;5020559;28;20033;-68
2023/02/03 11:23:55;;;;;;;6.78;3.10;;;9.40;91.70;;;;;;5022398;28;20040;-69
2023/02/03 11:26:41;;;;;;;7.88;3.30;;;9.40;91.60;;;;;;5008129;28;20036;-77
2023/02/03 11:29:19;;;;;;;9.38;3.25;;;9.40;92.00;;;;;;5021704;28;20508;-69
2023/02/03 11:31:50;;;;;;;4.40;2.35;;;9.40;92.20;;;;;;5024506;28;20033;-69
2023/02/03 11:34:24;;;;;;;11.63;3.00;;;9.30;91.70;;;;;;5001428;28;20041;-72
2023/02/03 11:36:50;;;;;;;10.63;3.50;;;9.30;91.90;;;;;;5022369;28;20029;-68
2023/02/03 11:39:18;;;;;;;9.48;2.65;;;9.30;92.60;;;;;;5020608;28;20048;-68
2023/02/03 11:41:46;;;;;;;6.15;2.22;;;9.30;90.40;;;;;;5021261;28;20410;-70
2023/02/03 11:44:30;;;;;;;3.58;1.85;;;9.30;90.70;;;;;;5021774;28;20030;-71
2023/02/03 11:47:07;;;;;;;5.88;1.85;;;9.40;91.80;;;;;;5023946;28;20025;-77
2023/02/03 11:49:36;;;;;;;6.45;2.15;;;9.40;91.50;;;;;;5021065;28;20079;-71
2023/02/03 11:52:01;;;;;;;3.85;1.70;;;9.40;91.00;;;;;;5017505;28;20080;-71
2023/02/03 11:54:30;;;;;;;5.83;2.20;;;9.40;90.90;;;;;;5017462;28;20042;-69
2023/02/03 11:57:30;;;;;;;7.50;2.00;;;9.40;91.30;;;;;;5023413;28;20048;-71
2023/02/03 12:00:18;;;;;;;7.53;2.30;;;9.60;91.40;;;;;;5021406;28;20072;-69
2023/02/03 12:03:22;;;;;;;7.70;2.40;;;9.70;90.40;;;;;;5016276;28;20026;-69
2023/02/03 12:05:57;;;;;;;5.95;1.60;;;9.90;90.10;;;;;;5021414;28;20033;-68
2023/02/03 12:08:40;;;;;;;5.00;1.90;;;10.10;87.70;;;;;;5016108;28;20041;-72
2023/02/03 12:11:26;;;;;;;9.30;3.60;;;10.30;86.90;;;;;;5028615;28;20034;-69
2023/02/03 12:13:54;;;;;;;8.13;2.88;;;10.60;85.40;;;;;;5019484;28;20045;-68
2023/02/03 12:16:30;;;;;;;3.45;1.50;;;10.60;85.00;;;;;;5022615;28;20041;-69
2023/02/03 12:19:14;;;;;;;9.65;2.92;;;10.70;85.30;;;;;;5009626;28;20029;-69
2023/02/03 12:21:51;;;;;;;6.30;2.10;;;10.70;86.30;;;;;;5019307;28;20100;-70
2023/02/03 12:24:23;;;;;;;5.07;2.22;;;10.70;84.50;;;;;;5021527;28;20490;-68
2023/02/03 12:27:01;;;;;;;5.85;2.03;;;10.80;85.90;;;;;;5019327;28;20029;-68
2023/02/03 12:29:35;;;;;;;4.50;1.98;;;10.80;82.10;;;;;;5024421;28;20064;-68
2023/02/03 12:32:38;;;;;;;3.28;1.88;;;10.80;85.00;;;;;;5024493;28;20052;-68
2023/02/03 12:35:25;;;;;;;4.32;1.33;;;10.90;83.80;;;;;;5020951;28;20071;-68
2023/02/03 12:38:00;;;;;;;4.68;1.67;;;11.00;83.40;;;;;;5022207;28;20083;-69
2023/02/03 12:40:30;;;;;;;4.53;1.92;;;11.10;84.20;;;;;;5025804;28;20029;-72
2023/02/03 12:43:15;;;;;;;7.05;2.05;;;10.80;83.50;;;;;;5026886;28;21387;-68
2023/02/03 12:45:55;;;;;;;9.38;2.45;;;10.60;84.00;;;;;;5025485;28;20041;-69
2023/02/03 12:48:28;;;;;;;6.10;2.88;;;10.30;85.10;;;;;;5020026;28;20508;-70
2023/02/03 12:51:00;;;;;;;6.13;2.40;;;10.40;86.60;;;;;;5018468;28;20037;-70
2023/02/03 12:53:38;;;;;;;4.80;1.70;;;10.80;88.30;;;;;;5021346;28;20041;-73
2023/02/03 12:56:11;;;;;;;9.95;1.85;;;10.80;86.30;;;;;;5022182;28;20030;-69
2023/02/03 12:58:55;;;;;;;4.65;1.75;;;10.70;87.50;;;;;;5020591;28;20048;-72